Time;durP1;ratioP1;P1;durP2;ratioP2;P2;SDS_P1;SDS_P2;PMS_P1;PMS_P2;Temp;Humidity;BMP_temperature;BMP_pressure;BME280_temperature;BME280_humidity;BME280_pressure;Samples;Min_cycle;Max_cycle;Signal;HPM_P1;HPM_P2
2023/07/06 00:00:55;;;;;;;3.47;2.13;;;;;;;;;;5033738;28;20049;-67
2023/07/06 00:03:25;;;;;;;3.38;2.65;;;;;;;;;;5033424;28;20049;-67
2023/07/06 00:05:54;;;;;;;2.67;2.08;;;;;;;;;;5033362;28;20458;-67
2023/07/06 00:08:22;;;;;;;2.92;2.28;;;;;;;;;;5033405;28;20067;-67
2023/07/06 00:10:49;;;;;;;3.47;2.22;;;;;;;;;;5033442;28;20033;-67
2023/07/06 00:13:20;;;;;;;3.55;2.50;;;;;;;;;;5033153;28;20045;-67
2023/07/06 00:15:48;;;;;;;17.40;3.60;;;;;;;;;;5033253;28;20038;-66
2023/07/06 00:18:17;;;;;;;6.88;2.22;;;;;;;;;;5021524;28;20527;-67
2023/07/06 00:20:44;;;;;;;5.05;2.03;;;;;;;;;;5028959;28;20141;-67
2023/07/06 00:23:12;;;;;;;3.58;1.90;;;;;;;;;;5033085;28;20041;-67
2023/07/06 00:25:43;;;;;;;3.30;2.00;;;;;;;;;;5032990;28;20036;-67
2023/07/06 00:28:11;;;;;;;2.70;1.77;;;;;;;;;;5019401;28;20538;-67
2023/07/06 00:30:53;;;;;;;3.42;1.75;;;;;;;;;;5012029;28;20037;-67
2023/07/06 00:33:21;;;;;;;5.53;2.10;;;;;;;;;;5012188;28;20515;-67
2023/07/06 00:35:49;;;;;;;3.88;2.10;;;;;;;;;;5011979;28;20038;-67
2023/07/06 00:38:18;;;;;;;3.85;2.20;;;;;;;;;;5012976;28;20491;-67
2023/07/06 00:40:47;;;;;;;3.28;2.20;;;;;;;;;;5012145;28;20045;-67
2023/07/06 00:43:23;;;;;;;5.72;2.22;;;;;;;;;;5012998;28;20468;-67
2023/07/06 00:45:56;;;;;;;3.28;2.35;;;;;;;;;;5011970;28;20049;-67
2023/07/06 00:48:34;;;;;;;3.80;2.55;;;;;;;;;;5011554;28;20120;-66
2023/07/06 00:51:05;;;;;;;4.65;2.60;;;;;;;;;;5011754;28;20049;-67
2023/07/06 00:53:35;;;;;;;6.07;2.90;;;;;;;;;;5011069;28;20050;-66
2023/07/06 00:56:04;;;;;;;4.57;2.90;;;;;;;;;;5012841;28;20048;-67
2023/07/06 00:58:34;;;;;;;4.00;2.80;;;;;;;;;;5029129;28;20045;-66
2023/07/06 01:01:03;;;;;;;4.63;3.30;;;;;;;;;;5031608;28;20095;-67
2023/07/06 01:03:31;;;;;;;4.57;3.00;;;;;;;;;;5015049;28;20495;-67
2023/07/06 01:06:01;;;;;;;4.15;3.03;;;;;;;;;;5031237;28;20139;-67
2023/07/06 01:08:28;;;;;;;3.88;3.20;;;;;;;;;;5031344;28;20046;-67
2023/07/06 01:10:58;;;;;;;6.28;3.00;;;;;;;;;;5031358;28;20041;-67
2023/07/06 01:13:26;;;;;;;4.30;3.33;;;;;;;;;;5031320;28;20053;-67
2023/07/06 01:16:02;;;;;;;5.68;3.30;;;;;;;;;;5032257;28;20041;-67
2023/07/06 01:18:42;;;;;;;5.28;3.55;;;;;;;;;;5031113;28;20041;-67
2023/07/06 01:21:34;;;;;;;6.43;3.60;;;;;;;;;;5031429;28;20061;-67
2023/07/06 01:24:23;;;;;;;4.03;3.30;;;;;;;;;;5026192;28;20176;-67
2023/07/06 01:27:03;;;;;;;8.65;3.40;;;;;;;;;;5030951;28;20046;-67
2023/07/06 01:29:45;;;;;;;5.53;3.70;;;;;;;;;;5031037;28;20046;-67
2023/07/06 01:32:15;;;;;;;6.57;3.58;;;;;;;;;;5031063;28;20047;-67
2023/07/06 01:34:53;;;;;;;7.03;3.47;;;;;;;;;;5032069;28;20060;-67
2023/07/06 01:37:22;;;;;;;4.00;3.50;;;;;;;;;;5032213;28;20053;-67
2023/07/06 01:39:51;;;;;;;6.35;3.80;;;;;;;;;;5032166;28;20088;-67
2023/07/06 01:42:25;;;;;;;5.30;3.67;;;;;;;;;;5031050;28;20064;-67
2023/07/06 01:44:56;;;;;;;7.20;3.43;;;;;;;;;;5030900;28;20410;-67
2023/07/06 01:47:24;;;;;;;4.68;3.50;;;;;;;;;;5030843;28;20088;-67
2023/07/06 01:49:52;;;;;;;4.35;3.53;;;;;;;;;;5032111;28;20114;-67
2023/07/06 01:52:30;;;;;;;6.95;3.90;;;;;;;;;;5030879;28;20080;-67
2023/07/06 01:55:10;;;;;;;6.90;3.58;;;;;;;;;;5032205;28;20422;-67
2023/07/06 01:57:40;;;;;;;5.88;3.55;;;;;;;;;;5016137;28;20041;-67
2023/07/06 02:00:27;;;;;;;5.93;3.92;;;;;;;;;;5010887;28;20451;-67
2023/07/06 02:02:55;;;;;;;4.88;3.70;;;;;;;;;;5012271;28;20069;-67
2023/07/06 02:05:23;;;;;;;6.22;3.83;;;;;;;;;;5014360;28;20049;-67
2023/07/06 02:07:51;;;;;;;4.25;3.47;;;;;;;;;;5014888;28;20057;-67
2023/07/06 02:10:19;;;;;;;5.40;3.40;;;;;;;;;;5014539;28;20041;-67
2023/07/06 02:12:49;;;;;;;5.68;3.42;;;;;;;;;;5014261;28;20415;-67
2023/07/06 02:15:21;;;;;;;7.65;3.70;;;;;;;;;;5014478;28;20069;-67
2023/07/06 02:17:55;;;;;;;4.93;3.63;;;;;;;;;;5014240;28;20049;-67
2023/07/06 02:20:23;;;;;;;8.95;3.50;;;;;;;;;;5015534;28;20096;-67
2023/07/06 02:22:51;;;;;;;7.40;3.45;;;;;;;;;;5014004;28;20044;-68
2023/07/06 02:25:21;;;;;;;7.25;3.47;;;;;;;;;;5015535;28;20492;-67
2023/07/06 02:27:49;;;;;;;4.90;3.65;;;;;;;;;;5014467;28;20050;-67
2023/07/06 02:30:16;;;;;;;5.75;3.50;;;;;;;;;;5015445;28;20081;-67
2023/07/06 02:32:46;;;;;;;5.78;3.60;;;;;;;;;;5015560;28;20414;-67
2023/07/06 02:35:13;;;;;;;4.57;3.25;;;;;;;;;;5014187;28;20073;-67
2023/07/06 02:37:41;;;;;;;8.18;4.00;;;;;;;;;;5014203;28;20049;-67
2023/07/06 02:40:10;;;;;;;5.85;4.07;;;;;;;;;;5015563;28;20057;-67
2023/07/06 02:42:41;;;;;;;7.78;3.65;;;;;;;;;;5015269;28;20096;-67
2023/07/06 02:45:10;;;;;;;8.20;3.65;;;;;;;;;;5015166;28;20597;-67
2023/07/06 02:47:38;;;;;;;6.15;3.53;;;;;;;;;;5015144;28;20033;-67
2023/07/06 02:50:10;;;;;;;5.55;3.53;;;;;;;;;;5014203;28;20054;-67
2023/07/06 02:52:39;;;;;;;6.72;3.65;;;;;;;;;;5013771;28;20068;-67
2023/07/06 02:55:09;;;;;;;4.00;3.30;;;;;;;;;;5013708;28;20048;-67
2023/07/06 02:57:39;;;;;;;6.18;4.43;;;;;;;;;;5013999;28;20115;-67
2023/07/06 03:00:12;;;;;;;5.80;3.70;;;;;;;;;;5015210;28;20439;-67
2023/07/06 03:02:39;;;;;;;5.90;3.95;;;;;;;;;;5015139;28;20053;-67
2023/07/06 03:05:07;;;;;;;6.25;3.53;;;;;;;;;;5013524;28;20046;-67
2023/07/06 03:07:35;;;;;;;5.47;4.15;;;;;;;;;;5013621;28;20137;-67
2023/07/06 03:10:03;;;;;;;6.45;3.50;;;;;;;;;;5014739;28;20080;-65
2023/07/06 03:12:33;;;;;;;8.60;4.00;;;;;;;;;;5013362;28;20491;-66
2023/07/06 03:15:02;;;;;;;6.93;3.70;;;;;;;;;;5014242;28;20045;-66
2023/07/06 03:17:29;;;;;;;4.72;3.92;;;;;;;;;;5014231;28;20518;-66
2023/07/06 03:19:57;;;;;;;8.57;3.70;;;;;;;;;;5013274;28;20180;-66
2023/07/06 03:22:24;;;;;;;5.63;3.47;;;;;;;;;;5013176;28;20451;-66
2023/07/06 03:24:52;;;;;;;10.63;3.83;;;;;;;;;;5013224;28;20058;-66
2023/07/06 03:27:19;;;;;;;9.27;3.78;;;;;;;;;;5014435;28;20030;-66
2023/07/06 03:29:47;;;;;;;6.95;3.88;;;;;;;;;;5014345;28;20393;-66
2023/07/06 03:32:14;;;;;;;8.02;3.80;;;;;;;;;;5014136;28;20037;-66
2023/07/06 03:34:45;;;;;;;8.05;4.10;;;;;;;;;;5014353;28;20041;-66
2023/07/06 03:37:12;;;;;;;7.78;3.78;;;;;;;;;;5013051;28;20065;-66
2023/07/06 03:39:40;;;;;;;7.70;4.07;;;;;;;;;;5012737;28;20045;-66
2023/07/06 03:42:08;;;;;;;7.65;3.95;;;;;;;;;;5014188;28;20129;-66
2023/07/06 03:44:35;;;;;;;8.73;4.88;;;;;;;;;;5014261;28;20599;-66
2023/07/06 03:47:03;;;;;;;5.80;4.20;;;;;;;;;;5012713;28;20057;-66
2023/07/06 03:49:34;;;;;;;5.50;4.00;;;;;;;;;;5013937;28;20037;-65
2023/07/06 03:52:02;;;;;;;6.45;4.15;;;;;;;;;;5022751;28;20037;-67
2023/07/06 03:54:34;;;;;;;8.38;4.40;;;;;;;;;;5034049;28;20103;-67
2023/07/06 03:57:05;;;;;;;6.00;4.30;;;;;;;;;;5033400;28;20517;-65
2023/07/06 03:59:33;;;;;;;12.75;4.85;;;;;;;;;;5033582;28;20052;-65
2023/07/06 04:02:01;;;;;;;6.57;4.68;;;;;;;;;;5033673;28;20505;-65
2023/07/06 04:04:28;;;;;;;9.60;4.70;;;;;;;;;;5032140;28;20045;-65
2023/07/06 04:06:56;;;;;;;9.07;4.32;;;;;;;;;;5033952;28;20048;-65
2023/07/06 04:09:30;;;;;;;5.60;3.90;;;;;;;;;;5033614;28;20073;-65
2023/07/06 04:11:57;;;;;;;8.30;4.90;;;;;;;;;;5033378;28;20045;-73
2023/07/06 04:14:25;;;;;;;7.65;4.70;;;;;;;;;;5031938;28;20033;-66
2023/07/06 04:16:54;;;;;;;7.97;4.80;;;;;;;;;;5033354;28;20189;-66
2023/07/06 04:19:22;;;;;;;7.32;4.80;;;;;;;;;;5031999;28;20462;-66
2023/07/06 04:21:50;;;;;;;9.65;5.00;;;;;;;;;;5033000;28;20454;-66
2023/07/06 04:24:17;;;;;;;9.55;5.30;;;;;;;;;;5033296;28;20045;-66
2023/07/06 04:26:46;;;;;;;8.18;4.72;;;;;;;;;;5032647;28;20048;-66
2023/07/06 04:29:14;;;;;;;12.35;5.32;;;;;;;;;;5032390;28;20046;-66
2023/07/06 04:31:42;;;;;;;8.95;5.28;;;;;;;;;;5033163;28;20128;-66
2023/07/06 04:34:10;;;;;;;7.55;5.13;;;;;;;;;;5033263;28;20438;-66
2023/07/06 04:36:39;;;;;;;8.75;4.72;;;;;;;;;;5032689;28;20124;-66
2023/07/06 04:39:08;;;;;;;8.07;4.38;;;;;;;;;;5033000;28;20049;-66
2023/07/06 04:41:37;;;;;;;8.00;5.43;;;;;;;;;;5033029;28;20038;-66
2023/07/06 04:44:05;;;;;;;6.95;4.80;;;;;;;;;;5032826;28;20045;-66
2023/07/06 04:46:36;;;;;;;10.10;4.93;;;;;;;;;;5032761;28;20042;-66
2023/07/06 04:49:03;;;;;;;8.63;5.07;;;;;;;;;;5031651;28;20037;-66
2023/07/06 04:51:31;;;;;;;7.80;4.90;;;;;;;;;;5031526;28;20034;-66
2023/07/06 04:53:59;;;;;;;7.25;5.28;;;;;;;;;;5032695;28;20038;-66
2023/07/06 04:56:27;;;;;;;10.07;4.88;;;;;;;;;;5032777;28;20050;-66
2023/07/06 04:58:56;;;;;;;13.35;5.88;;;;;;;;;;5032976;28;20095;-66
2023/07/06 05:01:24;;;;;;;11.02;4.93;;;;;;;;;;5032344;28;20046;-66
2023/07/06 05:03:52;;;;;;;11.35;5.45;;;;;;;;;;5032114;28;20517;-66
2023/07/06 05:06:20;;;;;;;11.23;5.50;;;;;;;;;;5032839;28;20037;-66
2023/07/06 05:08:49;;;;;;;8.07;5.47;;;;;;;;;;5032545;28;20056;-65
2023/07/06 05:11:17;;;;;;;11.98;5.32;;;;;;;;;;5032244;28;20136;-65
2023/07/06 05:13:45;;;;;;;8.07;5.20;;;;;;;;;;5032452;28;20487;-65
2023/07/06 05:16:13;;;;;;;12.00;4.88;;;;;;;;;;5032437;28;20497;-65
2023/07/06 05:18:40;;;;;;;8.18;4.88;;;;;;;;;;5032305;28;20095;-66
2023/07/06 05:21:09;;;;;;;7.85;5.35;;;;;;;;;;5032436;28;20037;-65
2023/07/06 05:23:36;;;;;;;9.05;5.95;;;;;;;;;;5032116;28;20053;-66
2023/07/06 05:26:04;;;;;;;7.80;5.70;;;;;;;;;;5031661;28;20122;-66
2023/07/06 05:28:32;;;;;;;10.98;7.85;;;;;;;;;;5032557;28;20046;-65
2023/07/06 05:31:02;;;;;;;14.43;11.80;;;;;;;;;;5032394;28;20069;-66
2023/07/06 05:33:32;;;;;;;8.95;6.85;;;;;;;;;;5032306;28;20134;-66
2023/07/06 05:36:00;;;;;;;10.32;6.82;;;;;;;;;;5031029;28;20096;-67
2023/07/06 05:38:28;;;;;;;11.30;6.38;;;;;;;;;;5032495;28;20045;-66
2023/07/06 05:41:01;;;;;;;6.78;5.82;;;;;;;;;;5036370;28;20588;-65
2023/07/06 05:43:29;;;;;;;10.32;5.63;;;;;;;;;;5035183;28;20049;-66
2023/07/06 05:45:57;;;;;;;12.07;5.60;;;;;;;;;;5036112;28;20053;-67
2023/07/06 05:48:25;;;;;;;9.43;6.30;;;;;;;;;;5035445;28;20463;-66
2023/07/06 05:50:52;;;;;;;15.35;11.00;;;;;;;;;;5036211;28;20440;-66
2023/07/06 05:53:20;;;;;;;15.93;8.02;;;;;;;;;;5035799;28;20132;-66
2023/07/06 05:55:48;;;;;;;80.60;15.45;;;;;;;;;;5035765;28;20046;-66
2023/07/06 05:58:16;;;;;;;22.77;7.32;;;;;;;;;;5034314;28;20041;-66
2023/07/06 06:00:44;;;;;;;25.35;7.40;;;;;;;;;;5035919;28;20462;-66
2023/07/06 06:03:11;;;;;;;11.75;5.35;;;;;;;;;;5035127;28;20041;-66
2023/07/06 06:05:39;;;;;;;12.25;5.47;;;;;;;;;;5035385;28;20053;-65
2023/07/06 06:08:07;;;;;;;222.23;27.98;;;;;;;;;;5035567;28;20030;-65
2023/07/06 06:10:35;;;;;;;38.78;8.82;;;;;;;;;;5035814;28;20052;-64
2023/07/06 06:13:02;;;;;;;17.13;5.80;;;;;;;;;;5034925;28;20048;-64
2023/07/06 06:15:30;;;;;;;15.32;5.70;;;;;;;;;;5035611;28;20121;-65
2023/07/06 06:17:58;;;;;;;10.05;5.45;;;;;;;;;;5035831;28;20046;-65
2023/07/06 06:20:25;;;;;;;13.45;5.15;;;;;;;;;;5035449;28;20049;-67
2023/07/06 06:22:53;;;;;;;7.93;4.97;;;;;;;;;;5035523;28;20557;-65
2023/07/06 06:25:20;;;;;;;10.93;5.80;;;;;;;;;;5033995;28;20053;-65
2023/07/06 06:27:48;;;;;;;8.60;5.50;;;;;;;;;;5035274;28;20136;-66
2023/07/06 06:30:16;;;;;;;14.60;6.18;;;;;;;;;;5035312;28;20523;-66
2023/07/06 06:32:43;;;;;;;17.80;8.95;;;;;;;;;;5035263;28;20041;-66
2023/07/06 06:35:32;;;;;;;14.35;6.40;;;;;;;;;;5035194;28;20558;-66
2023/07/06 06:38:03;;;;;;;12.75;6.95;;;;;;;;;;5035254;28;20057;-66
2023/07/06 06:40:31;;;;;;;11.52;5.50;;;;;;;;;;5034021;28;20087;-65
2023/07/06 06:43:00;;;;;;;8.25;4.72;;;;;;;;;;5035384;28;20410;-66
2023/07/06 06:45:28;;;;;;;9.85;5.35;;;;;;;;;;5034947;28;20053;-65
2023/07/06 06:47:56;;;;;;;8.75;5.30;;;;;;;;;;5035231;28;20394;-66
2023/07/06 06:50:23;;;;;;;8.80;5.85;;;;;;;;;;5034299;28;20538;-67
2023/07/06 06:52:51;;;;;;;12.20;6.13;;;;;;;;;;5033728;28;20038;-66
2023/07/06 06:55:19;;;;;;;9.25;5.57;;;;;;;;;;5033532;28;20505;-67
2023/07/06 06:57:47;;;;;;;8.68;5.32;;;;;;;;;;5035091;28;20044;-66
2023/07/06 07:00:16;;;;;;;12.07;5.35;;;;;;;;;;5034880;28;20450;-66
2023/07/06 07:02:44;;;;;;;8.02;4.20;;;;;;;;;;5034785;28;20038;-67
2023/07/06 07:05:15;;;;;;;5.75;3.95;;;;;;;;;;5033275;28;20487;-65
2023/07/06 07:07:43;;;;;;;8.02;4.45;;;;;;;;;;5034730;28;20065;-65
2023/07/06 07:10:10;;;;;;;8.32;4.45;;;;;;;;;;5034642;28;20053;-65
2023/07/06 07:12:39;;;;;;;10.27;4.80;;;;;;;;;;5034816;28;20042;-67
2023/07/06 07:15:08;;;;;;;8.57;4.22;;;;;;;;;;5033169;28;20052;-66
2023/07/06 07:17:37;;;;;;;7.93;4.35;;;;;;;;;;5034698;28;20407;-66
2023/07/06 07:20:05;;;;;;;9.18;4.30;;;;;;;;;;5034406;28;20092;-66
2023/07/06 07:22:33;;;;;;;6.95;4.10;;;;;;;;;;5034655;28;20065;-66
2023/07/06 07:25:02;;;;;;;7.90;4.50;;;;;;;;;;5034398;28;20045;-66
2023/07/06 07:27:30;;;;;;;8.00;4.00;;;;;;;;;;5034385;28;20391;-66
2023/07/06 07:29:58;;;;;;;12.38;4.38;;;;;;;;;;5034694;28;20449;-66
2023/07/06 07:32:29;;;;;;;9.70;4.25;;;;;;;;;;5034288;28;20378;-66
2023/07/06 07:34:58;;;;;;;8.27;4.00;;;;;;;;;;5034213;28;20068;-66
2023/07/06 07:37:26;;;;;;;8.82;4.75;;;;;;;;;;5033953;28;20507;-66
2023/07/06 07:39:55;;;;;;;6.68;4.65;;;;;;;;;;5034106;28;20064;-66
2023/07/06 07:42:25;;;;;;;7.18;4.13;;;;;;;;;;5034179;28;20052;-66
2023/07/06 07:44:55;;;;;;;11.80;4.13;;;;;;;;;;5033846;28;20124;-66
2023/07/06 07:47:24;;;;;;;7.75;4.05;;;;;;;;;;5032593;28;20069;-66
2023/07/06 07:49:53;;;;;;;8.93;4.95;;;;;;;;;;5032964;28;20054;-67
2023/07/06 07:52:21;;;;;;;8.50;4.40;;;;;;;;;;5032364;28;20081;-67
2023/07/06 07:54:51;;;;;;;8.18;3.83;;;;;;;;;;5033554;28;20440;-67
2023/07/06 07:57:18;;;;;;;8.70;4.28;;;;;;;;;;5033730;28;20045;-67
2023/07/06 07:59:48;;;;;;;10.95;5.00;;;;;;;;;;5033888;28;20072;-67
2023/07/06 08:02:17;;;;;;;8.73;4.35;;;;;;;;;;5033709;28;20395;-67
2023/07/06 08:04:47;;;;;;;8.35;4.22;;;;;;;;;;5033454;28;20051;-67
2023/07/06 08:07:15;;;;;;;7.30;4.35;;;;;;;;;;5033343;28;20052;-66
2023/07/06 08:09:43;;;;;;;7.53;4.30;;;;;;;;;;5033469;28;20402;-66
2023/07/06 08:12:11;;;;;;;10.70;4.63;;;;;;;;;;5032547;28;20433;-67
2023/07/06 08:14:41;;;;;;;5.65;4.03;;;;;;;;;;5033298;28;20053;-66
2023/07/06 08:17:10;;;;;;;9.93;4.25;;;;;;;;;;5032329;28;20045;-65
2023/07/06 08:19:38;;;;;;;9.00;4.05;;;;;;;;;;5033159;28;20045;-65
2023/07/06 08:22:25;;;;;;;6.80;4.50;;;;;;;;;;5033553;28;20491;-65
2023/07/06 08:24:53;;;;;;;18.73;4.55;;;;;;;;;;5033117;28;20041;-65
2023/07/06 08:27:20;;;;;;;7.28;4.13;;;;;;;;;;5033440;28;20128;-65
2023/07/06 08:29:50;;;;;;;9.40;5.32;;;;;;;;;;5031805;28;20033;-65
2023/07/06 08:32:19;;;;;;;8.90;4.60;;;;;;;;;;5031939;28;20049;-65
2023/07/06 08:34:47;;;;;;;6.97;3.95;;;;;;;;;;5033365;28;20069;-66
2023/07/06 08:37:18;;;;;;;7.55;4.38;;;;;;;;;;5032949;28;20099;-67
2023/07/06 08:39:46;;;;;;;9.13;4.38;;;;;;;;;;5033491;28;20072;-67
2023/07/06 08:42:16;;;;;;;10.00;4.32;;;;;;;;;;5032904;28;20065;-66
2023/07/06 08:44:49;;;;;;;14.65;4.60;;;;;;;;;;5032850;28;20402;-67
2023/07/06 08:47:17;;;;;;;15.00;4.38;;;;;;;;;;5031746;28;20475;-67
2023/07/06 08:49:45;;;;;;;9.43;4.25;;;;;;;;;;5031660;28;20053;-67
2023/07/06 08:52:15;;;;;;;7.43;4.35;;;;;;;;;;5032770;28;20041;-67
2023/07/06 08:54:46;;;;;;;7.32;4.00;;;;;;;;;;5033271;28;20079;-67
2023/07/06 08:57:16;;;;;;;6.40;4.03;;;;;;;;;;5032796;28;20057;-67
2023/07/06 08:59:44;;;;;;;7.60;4.00;;;;;;;;;;5032846;28;20033;-67
2023/07/06 09:02:25;;;;;;;7.32;3.83;;;;;;;;;;5032637;28;20144;-67
2023/07/06 09:04:53;;;;;;;5.88;4.30;;;;;;;;;;5033036;28;20069;-67
2023/07/06 09:07:26;;;;;;;7.43;4.18;;;;;;;;;;5032539;28;20113;-66
2023/07/06 09:09:56;;;;;;;6.40;3.97;;;;;;;;;;5031410;28;20037;-66
2023/07/06 09:12:40;;;;;;;8.13;4.25;;;;;;;;;;5032511;28;20045;-67
2023/07/06 09:15:11;;;;;;;8.77;4.60;;;;;;;;;;5032145;28;20044;-67
2023/07/06 09:17:50;;;;;;;6.20;4.40;;;;;;;;;;5032689;28;20049;-66
2023/07/06 09:20:19;;;;;;;6.18;4.32;;;;;;;;;;5032399;28;20120;-67
2023/07/06 09:22:48;;;;;;;6.78;4.85;;;;;;;;;;5031181;28;20041;-66
2023/07/06 09:25:17;;;;;;;6.22;4.70;;;;;;;;;;5032274;28;20045;-67
2023/07/06 09:27:45;;;;;;;10.30;4.60;;;;;;;;;;5032311;28;20041;-66
2023/07/06 09:30:23;;;;;;;9.50;4.72;;;;;;;;;;5032343;28;20134;-68
2023/07/06 09:32:54;;;;;;;6.50;4.47;;;;;;;;;;5032632;28;20041;-67
2023/07/06 09:35:21;;;;;;;9.18;4.45;;;;;;;;;;5032580;28;20521;-68
2023/07/06 09:37:53;;;;;;;6.78;4.47;;;;;;;;;;5032151;28;20503;-67
2023/07/06 09:40:27;;;;;;;7.80;4.90;;;;;;;;;;5032263;28;20045;-67
2023/07/06 09:42:58;;;;;;;6.03;4.03;;;;;;;;;;5032354;28;20041;-68
2023/07/06 09:45:31;;;;;;;7.00;4.68;;;;;;;;;;5032049;28;20095;-68
2023/07/06 09:48:02;;;;;;;8.73;4.32;;;;;;;;;;5032135;28;20041;-68
2023/07/06 09:50:40;;;;;;;9.45;4.70;;;;;;;;;;5032161;28;20392;-68
2023/07/06 09:53:11;;;;;;;8.57;5.97;;;;;;;;;;5032112;28;20124;-67
2023/07/06 09:55:38;;;;;;;6.03;4.68;;;;;;;;;;5032400;28;20124;-67
2023/07/06 09:58:09;;;;;;;8.68;4.50;;;;;;;;;;5032319;28;20042;-68
2023/07/06 10:00:42;;;;;;;10.05;4.70;;;;;;;;;;5031026;28;20455;-67
2023/07/06 10:03:10;;;;;;;14.93;8.27;;;;;;;;;;5032045;28;20051;-67
2023/07/06 10:05:48;;;;;;;10.10;4.43;;;;;;;;;;5032095;28;20041;-68
2023/07/06 10:08:20;;;;;;;6.78;4.45;;;;;;;;;;5031984;28;20565;-67
2023/07/06 10:10:55;;;;;;;7.20;4.82;;;;;;;;;;5032374;28;20083;-68
2023/07/06 10:13:28;;;;;;;7.22;4.72;;;;;;;;;;5031949;28;20133;-68
2023/07/06 10:15:56;;;;;;;9.00;4.40;;;;;;;;;;5030670;28;20052;-68
2023/07/06 10:18:30;;;;;;;7.50;4.30;;;;;;;;;;5032039;28;20136;-68
2023/07/06 10:21:04;;;;;;;9.02;4.65;;;;;;;;;;5031941;28;20451;-68
2023/07/06 10:23:34;;;;;;;6.38;4.63;;;;;;;;;;5032021;28;20061;-67
2023/07/06 10:26:20;;;;;;;6.63;4.22;;;;;;;;;;5032877;28;20483;-68
2023/07/06 10:28:58;;;;;;;6.78;4.90;;;;;;;;;;5035363;28;20049;-68
2023/07/06 10:31:33;;;;;;;7.93;4.75;;;;;;;;;;5035219;28;20502;-68
2023/07/06 10:34:13;;;;;;;6.03;4.97;;;;;;;;;;5035232;28;20073;-68
2023/07/06 10:36:42;;;;;;;9.18;5.15;;;;;;;;;;5035334;28;20076;-67
2023/07/06 10:39:14;;;;;;;11.30;5.05;;;;;;;;;;5035110;28;20052;-67
2023/07/06 10:41:49;;;;;;;8.10;4.45;;;;;;;;;;5035340;28;20369;-68
2023/07/06 10:44:35;;;;;;;8.35;4.25;;;;;;;;;;5035176;28;20049;-68
2023/07/06 10:47:03;;;;;;;6.70;4.68;;;;;;;;;;5017716;28;20051;-68
2023/07/06 10:49:31;;;;;;;6.82;4.57;;;;;;;;;;5035254;28;20064;-68
2023/07/06 10:51:59;;;;;;;10.07;4.80;;;;;;;;;;5035136;28;20107;-68
2023/07/06 10:54:31;;;;;;;8.10;4.97;;;;;;;;;;5033642;28;20494;-68
2023/07/06 10:57:00;;;;;;;7.65;4.72;;;;;;;;;;5034826;28;20037;-69
2023/07/06 10:59:48;;;;;;;8.18;4.55;;;;;;;;;;5035098;28;20049;-68
2023/07/06 11:02:24;;;;;;;7.95;4.43;;;;;;;;;;5034885;28;20041;-67
2023/07/06 11:04:55;;;;;;;6.47;4.75;;;;;;;;;;5033587;28;20095;-68
2023/07/06 11:07:35;;;;;;;6.95;4.53;;;;;;;;;;5034532;28;20072;-67
2023/07/06 11:10:09;;;;;;;9.95;4.80;;;;;;;;;;5034790;28;20487;-68
2023/07/06 11:12:54;;;;;;;8.43;4.72;;;;;;;;;;5034581;28;20041;-68
2023/07/06 11:15:25;;;;;;;7.53;5.30;;;;;;;;;;5035115;28;20471;-68
2023/07/06 11:17:54;;;;;;;11.63;4.82;;;;;;;;;;5034647;28;20120;-68
2023/07/06 11:20:23;;;;;;;6.68;5.10;;;;;;;;;;5034713;28;20434;-68
2023/07/06 11:22:56;;;;;;;9.40;5.38;;;;;;;;;;5034686;28;20125;-68
2023/07/06 11:25:28;;;;;;;8.57;4.82;;;;;;;;;;5034786;28;20045;-68
2023/07/06 11:27:59;;;;;;;8.13;4.82;;;;;;;;;;5034233;28;20049;-68
2023/07/06 11:30:47;;;;;;;6.88;4.88;;;;;;;;;;5033125;28;20050;-68
2023/07/06 11:33:18;;;;;;;8.90;4.75;;;;;;;;;;5034132;28;20043;-68
2023/07/06 11:35:51;;;;;;;6.85;4.70;;;;;;;;;;5034066;28;20064;-68
2023/07/06 11:38:21;;;;;;;8.85;5.30;;;;;;;;;;5033748;28;20129;-68
2023/07/06 11:41:09;;;;;;;6.70;5.20;;;;;;;;;;5032768;28;20080;-68
2023/07/06 11:43:52;;;;;;;8.95;5.18;;;;;;;;;;5033908;28;20415;-68
2023/07/06 11:46:27;;;;;;;11.32;5.15;;;;;;;;;;5033943;28;20096;-68
2023/07/06 11:49:14;;;;;;;8.48;4.60;;;;;;;;;;5033901;28;20096;-67
2023/07/06 11:51:43;;;;;;;7.47;4.47;;;;;;;;;;5033769;28;20380;-67
2023/07/06 11:54:29;;;;;;;7.97;4.40;;;;;;;;;;5033692;28;20045;-67
2023/07/06 11:59:52;;;;;;;7.75;4.60;;;;;;;;;;5033602;28;20037;-67
2023/07/06 12:02:27;;;;;;;11.00;4.60;;;;;;;;;;5033745;28;20506;-67
2023/07/06 12:04:54;;;;;;;7.35;4.07;;;;;;;;;;5033540;28;20079;-67
2023/07/06 12:07:29;;;;;;;7.93;4.32;;;;;;;;;;5033536;28;20042;-67
2023/07/06 12:10:02;;;;;;;7.50;4.07;;;;;;;;;;5032452;28;20044;-67
2023/07/06 12:12:30;;;;;;;;;;;;;;;;;;5032940;28;20544;-67
2023/07/06 12:14:59;;;;;;;6.50;3.78;;;;;;;;;;5033452;28;19975;-67
2023/07/06 12:17:29;;;;;;;9.02;3.70;;;;;;;;;;5033409;28;20116;-67
2023/07/06 12:19:58;;;;;;;5.93;3.63;;;;;;;;;;5033411;28;20041;-68
2023/07/06 12:22:26;;;;;;;7.25;3.65;;;;;;;;;;5033363;28;20126;-67
2023/07/06 12:24:57;;;;;;;9.02;4.03;;;;;;;;;;5033283;28;20048;-68
2023/07/06 12:27:27;;;;;;;5.97;3.63;;;;;;;;;;5032079;28;20111;-68
2023/07/06 12:30:07;;;;;;;7.05;3.78;;;;;;;;;;5033019;28;20407;-68
2023/07/06 12:32:36;;;;;;;9.43;4.25;;;;;;;;;;5033317;28;20129;-68
2023/07/06 12:35:04;;;;;;;9.63;3.90;;;;;;;;;;5032962;28;20079;-68
2023/07/06 12:37:32;;;;;;;4.05;3.00;;;;;;;;;;5032801;28;20045;-68
2023/07/06 12:40:00;;;;;;;7.93;3.88;;;;;;;;;;5032997;28;20479;-68
2023/07/06 12:42:28;;;;;;;7.90;3.53;;;;;;;;;;5032815;28;20406;-68
2023/07/06 12:44:56;;;;;;;6.70;3.72;;;;;;;;;;5032671;28;20077;-68
2023/07/06 12:47:40;;;;;;;8.15;4.88;;;;;;;;;;5031320;28;20061;-68
2023/07/06 12:50:14;;;;;;;10.35;3.60;;;;;;;;;;5032125;28;20124;-68
2023/07/06 12:52:43;;;;;;;9.45;3.60;;;;;;;;;;5033036;28;20042;-68
2023/07/06 12:55:21;;;;;;;6.78;3.13;;;;;;;;;;5032573;28;20075;-67
2023/07/06 12:57:50;;;;;;;5.50;3.63;;;;;;;;;;5031264;28;20062;-68
2023/07/06 13:00:22;;;;;;;8.60;3.80;;;;;;;;;;5032471;28;20044;-67
2023/07/06 13:02:55;;;;;;;5.72;3.33;;;;;;;;;;5031303;28;20120;-67
2023/07/06 13:05:24;;;;;;;6.90;4.25;;;;;;;;;;5032480;28;20132;-67
2023/07/06 13:07:53;;;;;;;7.03;4.00;;;;;;;;;;5032419;28;20125;-67
2023/07/06 13:10:21;;;;;;;7.25;3.80;;;;;;;;;;5032656;28;20041;-67
2023/07/06 13:12:53;;;;;;;8.95;4.03;;;;;;;;;;5032382;28;20045;-68
2023/07/06 13:15:23;;;;;;;5.00;3.05;;;;;;;;;;5032552;28;20045;-68
2023/07/06 13:17:53;;;;;;;7.53;3.72;;;;;;;;;;5032380;28;20471;-68
2023/07/06 13:20:21;;;;;;;7.95;3.75;;;;;;;;;;5032431;28;20132;-68
2023/07/06 13:22:48;;;;;;;7.57;3.35;;;;;;;;;;5032366;28;20120;-68
2023/07/06 13:25:17;;;;;;;5.85;3.72;;;;;;;;;;5032351;28;20059;-68
2023/07/06 13:27:46;;;;;;;5.95;3.45;;;;;;;;;;5032379;28;20128;-68
2023/07/06 13:30:15;;;;;;;5.82;3.45;;;;;;;;;;5032277;28;20038;-68
2023/07/06 13:32:43;;;;;;;7.55;3.78;;;;;;;;;;5032188;28;20064;-68
2023/07/06 13:35:12;;;;;;;5.43;3.38;;;;;;;;;;5032275;28;20410;-68
2023/07/06 13:37:43;;;;;;;7.72;3.63;;;;;;;;;;5032437;28;20061;-68
2023/07/06 13:40:15;;;;;;;9.20;3.30;;;;;;;;;;5031504;28;20037;-68
2023/07/06 13:42:44;;;;;;;10.30;3.78;;;;;;;;;;5029821;28;20045;-68
2023/07/06 13:45:16;;;;;;;8.73;3.78;;;;;;;;;;5037001;28;20044;-67
2023/07/06 13:47:45;;;;;;;5.50;3.40;;;;;;;;;;5017785;28;20057;-67
2023/07/06 13:50:12;;;;;;;6.35;3.47;;;;;;;;;;5030882;28;20037;-67
2023/07/06 13:52:41;;;;;;;9.23;3.72;;;;;;;;;;5018840;28;20124;-67
2023/07/06 13:55:13;;;;;;;9.32;3.97;;;;;;;;;;5031681;28;20518;-67
2023/07/06 13:57:41;;;;;;;7.20;3.70;;;;;;;;;;5031769;28;20076;-67
2023/07/06 14:00:10;;;;;;;7.53;3.67;;;;;;;;;;5021061;28;20041;-67
2023/07/06 14:02:43;;;;;;;8.57;3.60;;;;;;;;;;5034533;28;20418;-67
2023/07/06 14:05:14;;;;;;;7.55;3.63;;;;;;;;;;5035651;28;20042;-67
2023/07/06 14:07:42;;;;;;;8.57;3.95;;;;;;;;;;5035141;28;20069;-68
2023/07/06 14:10:10;;;;;;;10.30;3.92;;;;;;;;;;5035491;28;20044;-68
2023/07/06 14:12:38;;;;;;;5.70;3.60;;;;;;;;;;5035126;28;20038;-66
2023/07/06 14:15:08;;;;;;;5.25;3.33;;;;;;;;;;5035234;28;20060;-66
2023/07/06 14:17:36;;;;;;;6.13;3.15;;;;;;;;;;5021126;28;20100;-65
2023/07/06 14:20:04;;;;;;;9.43;3.83;;;;;;;;;;5034058;28;20061;-67
2023/07/06 14:22:32;;;;;;;5.15;3.25;;;;;;;;;;5035198;28;20037;-67
2023/07/06 14:24:59;;;;;;;8.93;3.28;;;;;;;;;;5034901;28;20506;-67
2023/07/06 14:27:29;;;;;;;6.03;3.20;;;;;;;;;;5037793;28;20132;-69
2023/07/06 14:29:57;;;;;;;6.55;3.20;;;;;;;;;;5034606;28;20037;-67
2023/07/06 14:32:24;;;;;;;8.48;3.47;;;;;;;;;;5033786;28;20038;-67
2023/07/06 14:34:52;;;;;;;5.85;3.10;;;;;;;;;;5034852;28;20503;-66
2023/07/06 14:37:20;;;;;;;7.90;3.42;;;;;;;;;;5034713;28;20084;-68
2023/07/06 14:39:48;;;;;;;13.75;4.22;;;;;;;;;;5034631;28;20069;-66
2023/07/06 14:42:17;;;;;;;9.43;4.13;;;;;;;;;;5034680;28;20048;-65
2023/07/06 14:44:45;;;;;;;9.75;4.28;;;;;;;;;;5034404;28;20046;-68
2023/07/06 14:47:13;;;;;;;8.32;4.20;;;;;;;;;;5034462;28;20065;-68
2023/07/06 14:49:40;;;;;;;9.27;3.97;;;;;;;;;;5034572;28;20045;-67
2023/07/06 14:52:08;;;;;;;11.05;3.97;;;;;;;;;;5020637;28;20565;-67
2023/07/06 14:54:37;;;;;;;7.10;4.10;;;;;;;;;;5034720;28;20495;-67
2023/07/06 14:57:05;;;;;;;11.65;3.92;;;;;;;;;;5034505;28;20061;-67
2023/07/06 14:59:32;;;;;;;9.90;4.03;;;;;;;;;;5034400;28;20041;-67
2023/07/06 15:02:00;;;;;;;6.82;3.90;;;;;;;;;;5034292;28;20052;-67